SWR134 LSZH-VHHH
Flight info
| Callsign | SWR134 |
|---|---|
| Flight time | N/A |
| Altitude | 29000 |
| Route | DEGES Z2 UMVEG/N0484F330 DCT DIMLO DCT INVED DCT SOKRU DCT DINRO DCT UDROS DCT ABSAX DCT KARDE DCT REBLO M11 AMOKU/N0480F350 M11 RODAR A909 ABDAN A846 RANAH L750 MERUN G452 LKN A201 PPT/N0489F370 A201 LSO A599 LINSO/K0887S1130 A599 POU R473 SIERA |
| Aircraft | B77W/H-SDE1E2E3FGHIJ2J3J4J5M1RWXY/LB1D1 |
Departure
| Time | 2026-04-30 20:45 |
|---|---|
| Airport | Zürich Airport (LSZH) |
Arrival
| Time | N/A |
|---|---|
| Airport | Hong Kong International Airport (VHHH) |
| Time | Latitude | Longitude | Altitude | Speed | Heading |
|---|---|---|---|---|---|
| 2026-04-30 20:05 | 47.46059 | 8.55337 | 1401 ft | 0 kts | 6° |
| 2026-04-30 20:25 | 47.46059 | 8.55336 | 1401 ft | 0 kts | 6° |
| 2026-04-30 20:26 | 47.46059 | 8.55337 | 1401 ft | 0 kts | 6° |
| 2026-04-30 20:26 | 47.46059 | 8.55336 | 1401 ft | 0 kts | 6° |
| 2026-04-30 20:36 | 47.46037 | 8.55333 | 1382 ft | 2 kts | 5° |
| 2026-04-30 20:37 | 47.46021 | 8.55331 | 1377 ft | 2 kts | 6° |
| 2026-04-30 20:37 | 47.46005 | 8.55327 | 1411 ft | 2 kts | 32° |
| 2026-04-30 20:37 | 47.45992 | 8.55311 | 1411 ft | 2 kts | 55° |
| 2026-04-30 20:37 | 47.45984 | 8.55289 | 1401 ft | 2 kts | 72° |
| 2026-04-30 20:38 | 47.45981 | 8.55271 | 1411 ft | 1 kts | 88° |
| 2026-04-30 20:38 | 47.45981 | 8.55268 | 1411 ft | 0 kts | 90° |
| 2026-04-30 20:40 | 47.45981 | 8.55276 | 1411 ft | 3 kts | 93° |
| 2026-04-30 20:40 | 47.45975 | 8.55353 | 1406 ft | 12 kts | 96° |
| 2026-04-30 20:41 | 47.45948 | 8.55724 | 1415 ft | 19 kts | 96° |
| 2026-04-30 20:41 | 47.45935 | 8.55898 | 1417 ft | 16 kts | 96° |
| 2026-04-30 20:41 | 47.45926 | 8.56025 | 1415 ft | 12 kts | 94° |
| 2026-04-30 20:41 | 47.45917 | 8.56174 | 1418 ft | 17 kts | 96° |
| 2026-04-30 20:42 | 47.45948 | 8.56303 | 1419 ft | 12 kts | 25° |
| 2026-04-30 20:42 | 47.46002 | 8.56320 | 1420 ft | 2 kts | 9° |
| 2026-04-30 20:42 | 47.46011 | 8.56322 | 1420 ft | 6 kts | 8° |
| 2026-04-30 20:43 | 47.46085 | 8.56344 | 1421 ft | 13 kts | 29° |
| 2026-04-30 20:43 | 47.46131 | 8.56416 | 1419 ft | 6 kts | 33° |
| 2026-04-30 20:43 | 47.46158 | 8.56407 | 1416 ft | 5 kts | 323° |
| 2026-04-30 20:44 | 47.46177 | 8.56381 | 1419 ft | 0 kts | 317° |
| 2026-04-30 20:44 | 47.46460 | 8.55994 | 1413 ft | 90 kts | 317° |
| 2026-04-30 20:45 | 47.48023 | 8.53863 | 1442 ft | 200 kts | 317° |
| 2026-04-30 20:45 | 47.49032 | 8.52432 | 1816 ft | 204 kts | 319° |
| 2026-04-30 20:45 | 47.50103 | 8.50964 | 2174 ft | 214 kts | 321° |
| 2026-04-30 20:46 | 47.53848 | 8.47686 | 3298 ft | 241 kts | 298° |
| 2026-04-30 20:46 | 47.54075 | 8.45153 | 3522 ft | 263 kts | 257° |
| 2026-04-30 20:47 | 47.52413 | 8.40311 | 4629 ft | 266 kts | 241° |
| 2026-04-30 20:47 | 47.51445 | 8.37999 | 5203 ft | 266 kts | 225° |
| 2026-04-30 20:48 | 47.48081 | 8.36403 | 6193 ft | 266 kts | 165° |
| 2026-04-30 20:48 | 47.46401 | 8.37507 | 6712 ft | 268 kts | 139° |
| 2026-04-30 20:48 | 47.45213 | 8.39612 | 7204 ft | 270 kts | 111° |
| 2026-04-30 20:48 | 47.44964 | 8.42285 | 7743 ft | 271 kts | 80° |
| 2026-04-30 20:49 | 47.45368 | 8.45022 | 8171 ft | 276 kts | 81° |
| 2026-04-30 20:49 | 47.45600 | 8.47845 | 8827 ft | 275 kts | 86° |
| 2026-04-30 20:49 | 47.45681 | 8.50679 | 9471 ft | 279 kts | 89° |
| 2026-04-30 20:50 | 47.45756 | 8.56478 | 10638 ft | 285 kts | 86° |
| 2026-04-30 20:50 | 47.45872 | 8.59443 | 10883 ft | 302 kts | 86° |
| 2026-04-30 20:50 | 47.45999 | 8.62644 | 11091 ft | 321 kts | 86° |
| 2026-04-30 20:50 | 47.46127 | 8.66045 | 11271 ft | 341 kts | 86° |
| 2026-04-30 20:51 | 47.46259 | 8.69644 | 11544 ft | 358 kts | 86° |
| 2026-04-30 20:51 | 47.46536 | 8.77128 | 12853 ft | 370 kts | 86° |
| 2026-04-30 20:51 | 47.46674 | 8.80952 | 13612 ft | 374 kts | 87° |
| 2026-04-30 20:52 | 47.46528 | 8.84781 | 14269 ft | 378 kts | 100° |
| 2026-04-30 20:52 | 47.46124 | 8.87306 | 14685 ft | 382 kts | 103° |
| 2026-04-30 20:52 | 47.44693 | 8.96249 | 16354 ft | 387 kts | 100° |
| 2026-04-30 20:53 | 47.44316 | 8.98888 | 16823 ft | 390 kts | 99° |
| 2026-04-30 20:53 | 47.43766 | 9.02777 | 17505 ft | 393 kts | 99° |
| 2026-04-30 20:53 | 47.43208 | 9.06752 | 18172 ft | 397 kts | 99° |
| 2026-04-30 20:54 | 47.42069 | 9.14815 | 19378 ft | 405 kts | 99° |
| 2026-04-30 20:54 | 47.41526 | 9.18892 | 19904 ft | 405 kts | 94° |
| 2026-04-30 20:54 | 47.41581 | 9.23046 | 20316 ft | 405 kts | 76° |
| 2026-04-30 20:55 | 47.42950 | 9.31156 | 21298 ft | 411 kts | 75° |
| 2026-04-30 20:55 | 47.43591 | 9.35283 | 21896 ft | 414 kts | 75° |
| 2026-04-30 20:55 | 47.44220 | 9.39445 | 22472 ft | 417 kts | 75° |
| 2026-04-30 20:56 | 47.45481 | 9.47881 | 23542 ft | 424 kts | 75° |
| 2026-04-30 20:56 | 47.46119 | 9.52157 | 24039 ft | 428 kts | 75° |
| 2026-04-30 20:56 | 47.47016 | 9.60890 | 25027 ft | 433 kts | 84° |
| 2026-04-30 20:57 | 47.47059 | 9.65355 | 25532 ft | 437 kts | 89° |
| 2026-04-30 20:57 | 47.46832 | 9.69850 | 25991 ft | 439 kts | 91° |
| 2026-04-30 20:57 | 47.46562 | 9.74365 | 26424 ft | 441 kts | 91° |
| 2026-04-30 20:58 | 47.46021 | 9.83380 | 27285 ft | 445 kts | 91° |
| 2026-04-30 20:58 | 47.45755 | 9.87938 | 27741 ft | 446 kts | 91° |
| 2026-04-30 20:58 | 47.45493 | 9.92515 | 28169 ft | 447 kts | 91° |
| 2026-04-30 20:58 | 47.45232 | 9.97095 | 28561 ft | 448 kts | 90° |
| 2026-04-30 20:59 | 47.44702 | 10.06328 | 29217 ft | 453 kts | 90° |
| 2026-04-30 20:59 | 47.44432 | 10.10968 | 29247 ft | 453 kts | 90° |
| 2026-04-30 21:00 | 47.42537 | 10.29412 | 29277 ft | 455 kts | 96° |
| 2026-04-30 21:01 | 47.40664 | 10.43089 | 29266 ft | 454 kts | 96° |
| 2026-04-30 21:02 | 47.38794 | 10.56777 | 29278 ft | 453 kts | 96° |
| 2026-04-30 21:02 | 47.37531 | 10.65877 | 29295 ft | 451 kts | 96° |
| 2026-04-30 21:03 | 47.36267 | 10.74934 | 29291 ft | 451 kts | 96° |
| 2026-04-30 21:03 | 47.34991 | 10.84021 | 29491 ft | 453 kts | 96° |
| 2026-04-30 21:03 | 47.34354 | 10.88562 | 30036 ft | 450 kts | 96° |
| 2026-04-30 21:04 | 47.33719 | 10.93052 | 30635 ft | 446 kts | 96° |
| 2026-04-30 21:04 | 47.33086 | 10.97516 | 31012 ft | 445 kts | 96° |
| 2026-04-30 21:04 | 47.31818 | 11.06445 | 31593 ft | 445 kts | 96° |
| 2026-04-30 21:05 | 47.31182 | 11.10904 | 31925 ft | 445 kts | 95° |
| 2026-04-30 21:05 | 47.30543 | 11.15355 | 32171 ft | 443 kts | 95° |
| 2026-04-30 21:05 | 47.29903 | 11.19796 | 32424 ft | 443 kts | 95° |
| 2026-04-30 21:05 | 47.29264 | 11.24241 | 32608 ft | 444 kts | 95° |
| 2026-04-30 21:06 | 47.28629 | 11.28645 | 32847 ft | 444 kts | 95° |
| 2026-04-30 21:06 | 47.27983 | 11.33095 | 33213 ft | 443 kts | 95° |
| 2026-04-30 21:06 | 47.27339 | 11.37528 | 33334 ft | 444 kts | 95° |
| 2026-04-30 21:06 | 47.26692 | 11.41982 | 33332 ft | 444 kts | 95° |
| 2026-04-30 21:07 | 47.25400 | 11.50850 | 33323 ft | 441 kts | 94° |
| 2026-04-30 21:07 | 47.24417 | 11.59707 | 33322 ft | 437 kts | 92° |
| 2026-04-30 21:08 | 47.23491 | 11.68564 | 33334 ft | 439 kts | 92° |
| 2026-04-30 21:08 | 47.22536 | 11.77460 | 33326 ft | 440 kts | 92° |
| 2026-04-30 21:09 | 47.21572 | 11.86310 | 33331 ft | 438 kts | 92° |
| 2026-04-30 21:09 | 47.20636 | 11.95163 | 33332 ft | 438 kts | 91° |
| 2026-04-30 21:10 | 47.19787 | 12.03972 | 33307 ft | 437 kts | 91° |
| 2026-04-30 21:10 | 47.18940 | 12.12830 | 33321 ft | 438 kts | 91° |
| 2026-04-30 21:11 | 47.18075 | 12.21709 | 33316 ft | 439 kts | 91° |
| 2026-04-30 21:11 | 47.17190 | 12.30589 | 33335 ft | 438 kts | 91° |
| 2026-04-30 21:12 | 47.16301 | 12.39447 | 33323 ft | 439 kts | 91° |
| 2026-04-30 21:12 | 47.15406 | 12.48300 | 33308 ft | 438 kts | 91° |
| 2026-04-30 21:13 | 47.14503 | 12.57169 | 33330 ft | 440 kts | 91° |
| 2026-04-30 21:13 | 47.13588 | 12.66074 | 33333 ft | 441 kts | 91° |
| 2026-04-30 21:14 | 47.12675 | 12.74899 | 33318 ft | 439 kts | 91° |
| 2026-04-30 21:14 | 47.11749 | 12.83767 | 33341 ft | 440 kts | 91° |
| 2026-04-30 21:15 | 47.10816 | 12.92664 | 33342 ft | 442 kts | 92° |
| 2026-04-30 21:15 | 47.09872 | 13.01589 | 33329 ft | 442 kts | 92° |
| 2026-04-30 21:16 | 47.08918 | 13.10500 | 33339 ft | 442 kts | 92° |
| 2026-04-30 21:16 | 47.07957 | 13.19394 | 33378 ft | 442 kts | 92° |
| 2026-04-30 21:17 | 47.06995 | 13.28334 | 33361 ft | 445 kts | 92° |
| 2026-04-30 21:17 | 47.06025 | 13.37235 | 33383 ft | 444 kts | 92° |
| 2026-04-30 21:18 | 47.05043 | 13.46153 | 33376 ft | 444 kts | 92° |
| 2026-04-30 21:18 | 47.04049 | 13.55115 | 33367 ft | 445 kts | 92° |
| 2026-04-30 21:19 | 47.03051 | 13.64039 | 33365 ft | 443 kts | 92° |
| 2026-04-30 21:19 | 47.02047 | 13.72968 | 33388 ft | 445 kts | 92° |
| 2026-04-30 21:20 | 47.01042 | 13.81851 | 33397 ft | 444 kts | 93° |
| 2026-04-30 21:20 | 47.00022 | 13.90795 | 33396 ft | 445 kts | 93° |
| 2026-04-30 21:21 | 46.98994 | 13.99724 | 33394 ft | 446 kts | 93° |
| 2026-04-30 21:22 | 46.97439 | 14.13158 | 33397 ft | 447 kts | 93° |
| 2026-04-30 21:23 | 46.95335 | 14.31080 | 33399 ft | 446 kts | 93° |
| 2026-04-30 21:23 | 46.93737 | 14.44526 | 33399 ft | 447 kts | 94° |
| 2026-04-30 21:24 | 46.92666 | 14.53448 | 33404 ft | 448 kts | 94° |
| 2026-04-30 21:24 | 46.91586 | 14.62422 | 33427 ft | 448 kts | 94° |
| 2026-04-30 21:25 | 46.89943 | 14.75913 | 33407 ft | 448 kts | 94° |
| 2026-04-30 21:26 | 46.88284 | 14.89400 | 33418 ft | 451 kts | 94° |
| 2026-04-30 21:27 | 46.86602 | 15.02946 | 33424 ft | 451 kts | 94° |
| 2026-04-30 21:27 | 46.85478 | 15.11905 | 33420 ft | 450 kts | 94° |
| 2026-04-30 21:28 | 46.83772 | 15.25427 | 33405 ft | 452 kts | 95° |
| 2026-04-30 21:29 | 46.82042 | 15.38983 | 33411 ft | 453 kts | 95° |
| 2026-04-30 21:30 | 46.79111 | 15.61661 | 33403 ft | 456 kts | 95° |
| 2026-04-30 21:31 | 46.76130 | 15.84346 | 33401 ft | 457 kts | 96° |
| 2026-04-30 21:32 | 46.74311 | 15.98020 | 33404 ft | 458 kts | 96° |
| 2026-04-30 21:32 | 46.73087 | 16.07140 | 33401 ft | 459 kts | 96° |
| 2026-04-30 21:33 | 46.71234 | 16.20851 | 33401 ft | 460 kts | 96° |
| 2026-04-30 21:34 | 46.69986 | 16.30011 | 33402 ft | 461 kts | 96° |
| 2026-04-30 21:34 | 46.68104 | 16.43759 | 33399 ft | 462 kts | 96° |
| 2026-04-30 21:35 | 46.67009 | 16.52969 | 33394 ft | 461 kts | 95° |
| 2026-04-30 21:35 | 46.65989 | 16.62196 | 33399 ft | 461 kts | 95° |
| 2026-04-30 21:36 | 46.64956 | 16.71350 | 33393 ft | 461 kts | 95° |
| 2026-04-30 21:37 | 46.62805 | 16.89789 | 33400 ft | 462 kts | 96° |
| 2026-04-30 21:37 | 46.61715 | 16.99000 | 33398 ft | 463 kts | 96° |
| 2026-04-30 21:38 | 46.60801 | 17.06674 | 33406 ft | 463 kts | 96° |
| 2026-04-30 21:38 | 46.59694 | 17.15910 | 33399 ft | 464 kts | 96° |
| 2026-04-30 21:39 | 46.58576 | 17.25167 | 33406 ft | 465 kts | 96° |
| 2026-04-30 21:39 | 46.57452 | 17.34418 | 33400 ft | 465 kts | 96° |
| 2026-04-30 21:40 | 46.56318 | 17.43684 | 33396 ft | 466 kts | 96° |
| 2026-04-30 21:40 | 46.55181 | 17.52905 | 33386 ft | 466 kts | 96° |
| 2026-04-30 21:41 | 46.54030 | 17.62177 | 33376 ft | 466 kts | 96° |
| 2026-04-30 21:41 | 46.52871 | 17.71452 | 33379 ft | 467 kts | 97° |
| 2026-04-30 21:42 | 46.51704 | 17.80722 | 33378 ft | 467 kts | 97° |
| 2026-04-30 21:42 | 46.50527 | 17.90009 | 33373 ft | 468 kts | 97° |
| 2026-04-30 21:43 | 46.49342 | 17.99301 | 33378 ft | 468 kts | 97° |
| 2026-04-30 21:43 | 46.48155 | 18.08542 | 33376 ft | 468 kts | 97° |
| 2026-04-30 21:44 | 46.46953 | 18.17839 | 33383 ft | 469 kts | 97° |
| 2026-04-30 21:44 | 46.45741 | 18.27149 | 33378 ft | 469 kts | 97° |
| 2026-04-30 21:45 | 46.44522 | 18.36453 | 33372 ft | 470 kts | 97° |
| 2026-04-30 21:45 | 46.43295 | 18.45754 | 33379 ft | 470 kts | 97° |
| 2026-04-30 21:46 | 46.42057 | 18.55079 | 33383 ft | 470 kts | 97° |
| 2026-04-30 21:46 | 46.40814 | 18.64380 | 33376 ft | 470 kts | 98° |
| 2026-04-30 21:47 | 46.39570 | 18.73629 | 33383 ft | 471 kts | 98° |
| 2026-04-30 21:47 | 46.38308 | 18.82946 | 33382 ft | 472 kts | 98° |
| 2026-04-30 21:48 | 46.37038 | 18.92268 | 33368 ft | 472 kts | 98° |
| 2026-04-30 21:48 | 46.35759 | 19.01599 | 33382 ft | 473 kts | 98° |
| 2026-04-30 21:49 | 46.34469 | 19.10940 | 33375 ft | 473 kts | 98° |
| 2026-04-30 21:49 | 46.33173 | 19.20272 | 33372 ft | 473 kts | 98° |
| 2026-04-30 21:50 | 46.31874 | 19.29560 | 33377 ft | 473 kts | 98° |
| 2026-04-30 21:50 | 46.30563 | 19.38889 | 33372 ft | 474 kts | 98° |
| 2026-04-30 21:51 | 46.29239 | 19.48241 | 33371 ft | 474 kts | 98° |
| 2026-04-30 21:51 | 46.27908 | 19.57584 | 33371 ft | 475 kts | 99° |
| 2026-04-30 21:52 | 46.26568 | 19.66939 | 33367 ft | 475 kts | 99° |
| 2026-04-30 21:52 | 46.25226 | 19.76244 | 33368 ft | 476 kts | 99° |
| 2026-04-30 21:53 | 46.23860 | 19.85661 | 33366 ft | 476 kts | 99° |
| 2026-04-30 21:53 | 46.22503 | 19.94960 | 33361 ft | 476 kts | 99° |
| 2026-04-30 21:54 | 46.21128 | 20.04324 | 33351 ft | 477 kts | 99° |
| 2026-04-30 21:54 | 46.19743 | 20.13696 | 33349 ft | 477 kts | 99° |
| 2026-04-30 21:55 | 46.18352 | 20.23061 | 33342 ft | 478 kts | 99° |
| 2026-04-30 21:55 | 46.16950 | 20.32447 | 33341 ft | 478 kts | 99° |
| 2026-04-30 21:56 | 46.15484 | 20.41808 | 33334 ft | 480 kts | 103° |
| 2026-04-30 21:56 | 46.13550 | 20.51044 | 33341 ft | 481 kts | 104° |
| 2026-04-30 21:57 | 46.11556 | 20.60266 | 33336 ft | 481 kts | 104° |
| 2026-04-30 21:57 | 46.09582 | 20.69438 | 33334 ft | 482 kts | 104° |
| 2026-04-30 21:58 | 46.07603 | 20.78672 | 33330 ft | 482 kts | 104° |
| 2026-04-30 21:58 | 46.05621 | 20.87910 | 33328 ft | 483 kts | 104° |
| 2026-04-30 21:59 | 46.03642 | 20.97090 | 33329 ft | 483 kts | 105° |